Time;durP1;ratioP1;P1;durP2;ratioP2;P2;SDS_P1;SDS_P2;PMS_P1;PMS_P2;Temp;Humidity;BMP_temperature;BMP_pressure;BME280_temperature;BME280_humidity;BME280_pressure;Samples;Min_cycle;Max_cycle;Signal;HPM_P1;HPM_P2
2023/08/21 00:00:04;;;;;;;2.50;1.83;;;26.70;99.90;;;;;;5011143;28;20377;-85
2023/08/21 00:02:30;;;;;;;2.53;1.67;;;26.70;99.90;;;;;;5008765;28;20591;-85
2023/08/21 00:04:56;;;;;;;3.30;2.13;;;26.70;99.90;;;;;;5027950;28;20185;-85
2023/08/21 00:07:22;;;;;;;2.87;1.70;;;26.70;99.90;;;;;;5010680;28;20498;-85
2023/08/21 00:09:50;;;;;;;2.53;1.90;;;26.70;99.90;;;;;;5012218;28;20448;-85
2023/08/21 00:12:16;;;;;;;2.53;1.70;;;26.70;99.90;;;;;;5007991;28;20188;-85
2023/08/21 00:14:41;;;;;;;2.90;2.03;;;26.70;99.90;;;;;;5007908;28;20181;-85
2023/08/21 00:17:07;;;;;;;3.93;1.80;;;26.70;99.90;;;;;;5026696;28;20181;-85
2023/08/21 00:19:33;;;;;;;6.37;1.90;;;26.70;99.90;;;;;;5006758;28;20190;-85
2023/08/21 00:22:00;;;;;;;2.50;1.77;;;26.70;99.90;;;;;;5009137;28;20457;-84
2023/08/21 00:24:26;;;;;;;2.27;1.57;;;26.60;99.90;;;;;;5025933;28;20184;-84
2023/08/21 00:26:52;;;;;;;2.53;2.00;;;26.60;99.90;;;;;;5010434;28;20212;-85
2023/08/21 00:29:17;;;;;;;2.40;1.80;;;26.60;99.90;;;;;;5018935;28;20177;-85
2023/08/21 00:31:43;;;;;;;2.37;1.80;;;26.70;99.90;;;;;;5007730;28;20235;-85
2023/08/21 00:34:09;;;;;;;2.00;1.60;;;26.60;99.90;;;;;;5017077;28;20287;-84
2023/08/21 00:36:35;;;;;;;1.67;1.50;;;26.60;99.90;;;;;;5025392;28;20240;-85
2023/08/21 00:39:00;;;;;;;2.73;1.80;;;26.60;99.90;;;;;;5026877;28;20176;-85
2023/08/21 00:41:26;;;;;;;1.80;1.60;;;26.60;99.90;;;;;;5009736;28;20189;-85
2023/08/21 00:43:52;;;;;;;3.10;1.90;;;26.60;99.90;;;;;;5025581;28;20185;-85
2023/08/21 00:46:18;;;;;;;2.00;1.60;;;26.60;99.90;;;;;;5006834;28;20176;-85
2023/08/21 00:48:44;;;;;;;1.80;1.57;;;26.60;99.90;;;;;;5007158;28;20209;-84
2023/08/21 00:51:11;;;;;;;1.70;1.60;;;26.50;99.90;;;;;;5004557;28;20185;-85
2023/08/21 00:53:38;;;;;;;2.93;1.80;;;26.50;99.90;;;;;;5006672;28;20327;-85
2023/08/21 00:56:04;;;;;;;1.80;1.57;;;26.50;99.90;;;;;;5007385;28;20204;-85
2023/08/21 00:58:29;;;;;;;3.23;1.60;;;26.50;99.90;;;;;;5021923;28;20372;-85
2023/08/21 01:00:55;;;;;;;2.27;1.70;;;26.50;99.90;;;;;;5019817;28;20464;-85
2023/08/21 01:03:21;;;;;;;2.77;1.90;;;26.50;99.90;;;;;;5024532;28;20441;-85
2023/08/21 01:05:47;;;;;;;3.67;1.80;;;26.50;99.90;;;;;;5003796;28;20260;-85
2023/08/21 01:08:28;;;;;;;1.93;1.50;;;26.40;99.90;;;;;;5006640;28;20212;-85
2023/08/21 01:11:18;;;;;;;2.27;1.60;;;26.40;99.90;;;;;;5024168;28;20184;-85
2023/08/21 01:13:58;;;;;;;2.83;1.70;;;26.40;99.90;;;;;;5027198;28;20185;-85
2023/08/21 01:16:25;;;;;;;2.37;1.60;;;26.50;99.90;;;;;;5015295;28;20290;-85
2023/08/21 01:18:54;;;;;;;2.27;1.80;;;26.40;99.90;;;;;;5017639;28;20183;-85
2023/08/21 01:21:20;;;;;;;2.00;1.53;;;26.40;99.90;;;;;;5007476;28;20188;-85
2023/08/21 01:23:46;;;;;;;2.90;1.90;;;26.40;99.90;;;;;;5027867;28;20176;-85
2023/08/21 01:26:11;;;;;;;1.80;1.70;;;26.40;99.90;;;;;;5006616;28;20173;-85
2023/08/21 01:28:38;;;;;;;1.90;1.53;;;26.40;99.90;;;;;;5006514;28;20398;-85
2023/08/21 01:31:23;;;;;;;2.30;1.80;;;26.40;99.90;;;;;;5007505;28;20185;-85
2023/08/21 01:33:53;;;;;;;1.73;1.50;;;26.40;99.90;;;;;;5026572;28;20362;-85
2023/08/21 01:36:20;;;;;;;1.87;1.70;;;26.40;99.90;;;;;;5024986;28;20178;-85
2023/08/21 01:38:46;;;;;;;2.00;1.80;;;26.30;99.90;;;;;;5004595;28;20309;-85
2023/08/21 01:41:12;;;;;;;2.60;1.77;;;26.30;99.90;;;;;;5008846;28;20189;-85
2023/08/21 01:43:38;;;;;;;2.07;1.80;;;26.30;99.90;;;;;;5004422;28;20432;-85
2023/08/21 01:46:03;;;;;;;1.93;1.70;;;26.30;99.90;;;;;;5022611;28;20173;-85
2023/08/21 01:48:29;;;;;;;2.03;1.70;;;26.30;99.90;;;;;;5004628;28;20212;-85
2023/08/21 01:50:55;;;;;;;3.27;2.00;;;26.30;99.90;;;;;;5007277;28;20458;-85
2023/08/21 01:53:21;;;;;;;2.03;1.67;;;26.30;99.90;;;;;;5008709;28;20177;-85
2023/08/21 01:55:46;;;;;;;1.93;1.50;;;26.30;99.90;;;;;;5005865;28;20184;-85
2023/08/21 01:58:12;;;;;;;2.03;1.70;;;26.30;99.90;;;;;;5004786;28;20208;-85
2023/08/21 02:00:38;;;;;;;2.10;1.60;;;26.30;99.90;;;;;;5010169;28;20259;-85
2023/08/21 02:03:04;;;;;;;3.20;1.67;;;26.30;99.90;;;;;;5007854;28;20232;-85
2023/08/21 02:05:30;;;;;;;1.97;1.60;;;26.20;99.90;;;;;;5004067;28;20176;-85
2023/08/21 02:07:55;;;;;;;1.93;1.70;;;26.20;99.90;;;;;;5007606;28;20212;-85
2023/08/21 02:10:21;;;;;;;2.17;1.53;;;26.20;99.90;;;;;;5006553;28;20212;-85
2023/08/21 02:12:47;;;;;;;1.80;1.60;;;26.20;99.90;;;;;;5025039;28;20173;-85
2023/08/21 02:15:13;;;;;;;1.87;1.70;;;26.20;99.90;;;;;;5022139;28;20169;-85
2023/08/21 02:17:42;;;;;;;2.23;1.80;;;26.20;99.90;;;;;;5008160;28;20282;-86
2023/08/21 02:20:09;;;;;;;2.37;1.70;;;26.20;99.90;;;;;;5009976;28;20182;-85
2023/08/21 02:22:34;;;;;;;3.23;1.83;;;26.20;99.90;;;;;;5009035;28;20575;-85
2023/08/21 02:25:00;;;;;;;2.70;1.90;;;26.20;99.90;;;;;;5007909;28;20201;-85
2023/08/21 02:27:26;;;;;;;2.27;1.70;;;26.10;99.90;;;;;;5024401;28;20216;-85
2023/08/21 02:29:52;;;;;;;2.67;1.60;;;26.10;99.90;;;;;;5005833;28;20178;-85
2023/08/21 02:32:17;;;;;;;2.30;1.63;;;26.10;99.90;;;;;;5027023;28;20172;-85
2023/08/21 02:34:43;;;;;;;1.60;1.30;;;26.10;99.90;;;;;;5013319;28;20209;-85
2023/08/21 02:37:08;;;;;;;4.03;1.80;;;26.00;99.90;;;;;;5026805;28;20181;-85
2023/08/21 02:39:34;;;;;;;1.73;1.60;;;26.10;99.90;;;;;;5003971;28;20181;-85
2023/08/21 02:42:00;;;;;;;1.83;1.70;;;26.10;99.90;;;;;;5006310;28;20186;-85
2023/08/21 02:44:26;;;;;;;2.40;1.60;;;26.00;99.90;;;;;;5026105;28;20173;-85
2023/08/21 02:46:51;;;;;;;1.53;1.43;;;26.00;99.90;;;;;;5005822;28;20177;-85
2023/08/21 02:49:17;;;;;;;2.23;1.57;;;26.00;99.80;;;;;;5024949;28;20177;-85
2023/08/21 02:51:43;;;;;;;1.70;1.50;;;26.00;99.80;;;;;;5005113;28;20559;-85
2023/08/21 02:54:09;;;;;;;1.93;1.70;;;26.00;99.80;;;;;;5012663;28;20181;-85
2023/08/21 02:56:34;;;;;;;4.37;1.60;;;26.00;99.80;;;;;;5005284;28;20183;-85
2023/08/21 02:59:00;;;;;;;2.30;1.63;;;25.90;99.80;;;;;;5006803;28;20212;-85
2023/08/21 03:01:26;;;;;;;2.43;1.73;;;25.90;99.80;;;;;;5011637;28;20472;-85
2023/08/21 03:03:51;;;;;;;2.37;1.70;;;25.90;99.80;;;;;;5026621;28;20302;-85
2023/08/21 03:06:17;;;;;;;1.93;1.67;;;25.90;99.80;;;;;;5030323;28;20181;-85
2023/08/21 03:08:43;;;;;;;2.63;1.90;;;25.90;99.90;;;;;;5011628;28;20601;-85
2023/08/21 03:11:09;;;;;;;1.73;1.50;;;25.90;99.80;;;;;;5007985;28;20287;-85
2023/08/21 03:13:35;;;;;;;1.87;1.70;;;25.90;99.80;;;;;;5027377;28;20461;-85
2023/08/21 03:16:01;;;;;;;2.20;1.63;;;25.90;99.80;;;;;;5008839;28;20212;-85
2023/08/21 03:18:31;;;;;;;1.73;1.63;;;25.90;99.70;;;;;;5026362;28;20223;-85
2023/08/21 03:20:57;;;;;;;1.93;1.70;;;25.90;99.80;;;;;;5008866;28;20185;-85
2023/08/21 03:23:23;;;;;;;1.50;1.40;;;25.90;99.80;;;;;;5006874;28;20197;-85
2023/08/21 03:25:51;;;;;;;2.10;1.90;;;25.80;99.80;;;;;;5009971;28;20192;-85
2023/08/21 03:28:17;;;;;;;2.13;1.90;;;25.80;99.80;;;;;;5024778;28;20267;-85
2023/08/21 03:30:43;;;;;;;2.07;1.57;;;25.80;99.80;;;;;;5026489;28;20217;-85
2023/08/21 03:33:09;;;;;;;2.10;1.60;;;25.80;99.70;;;;;;5008807;28;20189;-85
2023/08/21 03:35:34;;;;;;;2.37;1.53;;;25.80;99.70;;;;;;5007884;28;20200;-85
2023/08/21 03:38:00;;;;;;;4.20;1.90;;;25.80;99.70;;;;;;5009339;28;20206;-85
2023/08/21 03:40:26;;;;;;;2.40;1.67;;;25.80;99.70;;;;;;5010055;28;20184;-85
2023/08/21 03:42:51;;;;;;;1.73;1.57;;;25.80;99.60;;;;;;5009974;28;20351;-86
2023/08/21 03:45:17;;;;;;;1.70;1.60;;;25.80;99.70;;;;;;5006865;28;20189;-86
2023/08/21 03:47:43;;;;;;;2.27;1.60;;;25.70;99.60;;;;;;5010587;28;20219;-86
2023/08/21 03:50:09;;;;;;;2.57;1.70;;;25.70;99.60;;;;;;5008506;28;20184;-86
2023/08/21 03:52:34;;;;;;;2.13;1.60;;;25.70;99.70;;;;;;5026876;28;20181;-86
2023/08/21 03:55:00;;;;;;;2.00;1.73;;;25.70;99.70;;;;;;5005731;28;20186;-86
2023/08/21 03:57:25;;;;;;;1.50;1.37;;;25.70;99.70;;;;;;5004781;28;20481;-85
2023/08/21 03:59:51;;;;;;;2.37;1.77;;;25.70;99.70;;;;;;5022497;28;20280;-85
2023/08/21 04:02:17;;;;;;;3.17;1.90;;;25.70;99.70;;;;;;5008786;28;20554;-85
2023/08/21 04:04:43;;;;;;;1.90;1.60;;;25.70;99.60;;;;;;5023962;28;20182;-85
2023/08/21 04:07:08;;;;;;;1.90;1.53;;;25.70;99.60;;;;;;5021120;28;20299;-86
2023/08/21 04:09:34;;;;;;;1.87;1.67;;;25.70;99.70;;;;;;5025347;28;20342;-85
2023/08/21 04:12:00;;;;;;;1.83;1.67;;;25.70;99.60;;;;;;5005908;28;20192;-86
2023/08/21 04:14:25;;;;;;;2.00;1.73;;;25.60;99.60;;;;;;5008714;28;20216;-86
2023/08/21 04:16:51;;;;;;;2.10;1.70;;;25.60;99.60;;;;;;5015862;28;20192;-86
2023/08/21 04:19:17;;;;;;;1.90;1.70;;;25.60;99.60;;;;;;5016569;28;20184;-86
2023/08/21 04:21:43;;;;;;;2.03;1.47;;;25.60;99.60;;;;;;5022592;28;20337;-86
2023/08/21 04:24:09;;;;;;;2.43;1.60;;;25.60;99.60;;;;;;5005407;28;20182;-86
2023/08/21 04:26:34;;;;;;;3.60;1.70;;;25.60;99.60;;;;;;5023721;28;20220;-86
2023/08/21 04:29:00;;;;;;;1.70;1.50;;;25.60;99.60;;;;;;5004426;28;20427;-86
2023/08/21 04:31:26;;;;;;;1.97;1.70;;;25.60;99.60;;;;;;5024986;28;20211;-86
2023/08/21 04:33:51;;;;;;;2.47;1.70;;;25.60;99.60;;;;;;5005186;28;20276;-86
2023/08/21 04:36:17;;;;;;;2.37;1.73;;;25.60;99.60;;;;;;5025516;28;20184;-86
2023/08/21 04:38:43;;;;;;;2.27;1.73;;;25.60;99.50;;;;;;5025591;28;20181;-86
2023/08/21 04:41:09;;;;;;;3.20;1.83;;;25.60;99.50;;;;;;5022953;28;20196;-86
2023/08/21 04:43:35;;;;;;;1.80;1.60;;;25.60;99.60;;;;;;5005979;28;20296;-86
2023/08/21 04:46:01;;;;;;;1.97;1.70;;;25.50;99.60;;;;;;5006571;28;20283;-86
2023/08/21 04:48:26;;;;;;;5.00;1.67;;;25.50;99.60;;;;;;5007032;28;20232;-86
2023/08/21 04:50:52;;;;;;;2.00;1.50;;;25.50;99.60;;;;;;5023909;28;20280;-86
2023/08/21 04:53:18;;;;;;;2.17;1.57;;;25.50;99.60;;;;;;5020691;28;20178;-86
2023/08/21 04:55:44;;;;;;;2.83;1.90;;;25.50;99.60;;;;;;5005658;28;20456;-86
2023/08/21 04:58:10;;;;;;;3.93;1.47;;;25.40;99.60;;;;;;5003766;28;20202;-86
2023/08/21 05:00:36;;;;;;;2.60;1.60;;;25.40;99.60;;;;;;5017141;28;20504;-86
2023/08/21 05:03:02;;;;;;;3.10;1.60;;;25.40;99.50;;;;;;5017486;28;20204;-86
2023/08/21 05:05:28;;;;;;;2.70;1.70;;;25.40;99.50;;;;;;5002820;28;20185;-86
2023/08/21 05:07:53;;;;;;;2.67;1.63;;;25.40;99.50;;;;;;5000877;28;20306;-86
2023/08/21 05:10:20;;;;;;;1.47;1.37;;;25.40;99.50;;;;;;5020912;28;20173;-86
2023/08/21 05:12:47;;;;;;;1.97;1.60;;;25.40;99.50;;;;;;5000133;28;20469;-86
2023/08/21 05:15:12;;;;;;;2.73;1.70;;;25.40;99.40;;;;;;5019077;28;20184;-86
2023/08/21 05:17:38;;;;;;;2.03;1.60;;;25.40;99.80;;;;;;4980140;28;20204;-86
2023/08/21 05:20:05;;;;;;;2.77;1.70;;;25.40;99.40;;;;;;5013854;28;20249;-86
2023/08/21 05:22:30;;;;;;;2.17;1.50;;;25.50;99.30;;;;;;5018222;28;20180;-86
2023/08/21 05:24:56;;;;;;;2.17;1.57;;;25.50;99.30;;;;;;4997564;28;20196;-86
2023/08/21 05:27:21;;;;;;;3.33;1.50;;;25.50;99.20;;;;;;5002858;28;20664;-86
2023/08/21 05:29:50;;;;;;;2.70;1.60;;;25.60;99.00;;;;;;4998080;28;20455;-86
2023/08/21 05:32:16;;;;;;;1.77;1.60;;;25.70;98.70;;;;;;5018585;28;20176;-86
2023/08/21 05:34:42;;;;;;;1.67;1.57;;;25.70;98.60;;;;;;4999298;28;20193;-86
2023/08/21 05:37:07;;;;;;;1.90;1.57;;;25.70;98.30;;;;;;4998506;28;20562;-86
2023/08/21 05:39:33;;;;;;;1.93;1.73;;;25.70;98.40;;;;;;5017073;28;20213;-86
2023/08/21 05:41:59;;;;;;;3.43;1.87;;;25.60;98.70;;;;;;5016952;28;20301;-86
2023/08/21 05:44:25;;;;;;;2.40;1.70;;;25.60;98.80;;;;;;5003769;28;20248;-86
2023/08/21 05:46:50;;;;;;;3.10;1.60;;;25.60;98.80;;;;;;4996691;28;20181;-86
2023/08/21 05:49:16;;;;;;;2.13;1.90;;;25.60;98.80;;;;;;4983585;28;20181;-86
2023/08/21 05:51:42;;;;;;;1.70;1.60;;;25.50;98.80;;;;;;5015208;28;20177;-86
2023/08/21 05:54:08;;;;;;;2.73;1.70;;;25.50;98.80;;;;;;4998375;28;20182;-86
2023/08/21 05:56:34;;;;;;;3.70;1.60;;;25.50;98.80;;;;;;4998263;28;20428;-86
2023/08/21 05:59:00;;;;;;;2.53;1.70;;;25.50;98.80;;;;;;5004981;28;20524;-86
2023/08/21 06:01:25;;;;;;;2.07;1.60;;;25.50;98.90;;;;;;4997018;28;20377;-86
2023/08/21 06:03:51;;;;;;;2.60;1.70;;;25.50;98.90;;;;;;4999291;28;20182;-86
2023/08/21 06:06:16;;;;;;;3.00;1.60;;;25.50;98.90;;;;;;5002262;28;20404;-87
2023/08/21 06:08:42;;;;;;;4.07;1.93;;;25.50;98.80;;;;;;5008409;28;20460;-86
2023/08/21 06:11:08;;;;;;;3.33;1.90;;;25.50;98.80;;;;;;4995798;28;20287;-86
2023/08/21 06:13:34;;;;;;;2.03;1.60;;;25.60;98.80;;;;;;4996210;28;20181;-87
2023/08/21 06:16:00;;;;;;;2.90;1.70;;;25.60;98.70;;;;;;4998444;28;20189;-87
2023/08/21 06:18:26;;;;;;;2.77;1.90;;;25.60;98.60;;;;;;4997402;28;20208;-86
2023/08/21 06:20:53;;;;;;;2.90;1.60;;;25.70;98.60;;;;;;4993778;28;20186;-86
2023/08/21 06:23:20;;;;;;;2.40;1.70;;;25.60;98.60;;;;;;4994964;28;20450;-86
2023/08/21 06:25:48;;;;;;;2.47;1.57;;;25.70;98.60;;;;;;4994273;28;20446;-87
2023/08/21 06:28:14;;;;;;;2.37;1.63;;;25.60;98.60;;;;;;4996370;28;20215;-86
2023/08/21 06:30:39;;;;;;;2.00;1.80;;;25.70;98.60;;;;;;4995950;28;20185;-87
2023/08/21 06:33:05;;;;;;;1.90;1.70;;;25.70;98.60;;;;;;4999546;28;20212;-87
2023/08/21 06:35:30;;;;;;;2.10;1.63;;;25.70;98.40;;;;;;4995587;28;20192;-87
2023/08/21 06:37:57;;;;;;;2.37;1.90;;;25.70;98.40;;;;;;5009573;28;20239;-87
2023/08/21 06:40:22;;;;;;;4.00;2.10;;;25.80;98.20;;;;;;5013408;28;20460;-87
2023/08/21 06:42:52;;;;;;;3.23;1.80;;;25.80;98.10;;;;;;5013155;28;20494;-87
2023/08/21 06:45:18;;;;;;;2.70;1.60;;;25.90;98.10;;;;;;4994706;28;20195;-87
2023/08/21 06:47:44;;;;;;;3.93;1.80;;;25.90;98.00;;;;;;4996579;28;20216;-87
2023/08/21 06:50:10;;;;;;;3.13;1.77;;;26.00;97.90;;;;;;4997033;28;20559;-87
2023/08/21 06:52:36;;;;;;;1.90;1.70;;;26.00;97.90;;;;;;4997843;28;20469;-87
2023/08/21 06:55:02;;;;;;;2.73;1.77;;;26.00;97.70;;;;;;4995953;28;20434;-87
2023/08/21 06:57:28;;;;;;;3.40;2.07;;;26.10;97.60;;;;;;5014051;28;20259;-87
2023/08/21 06:59:54;;;;;;;3.87;1.90;;;26.20;97.50;;;;;;4998577;28;20661;-87
2023/08/21 07:02:19;;;;;;;3.13;2.15;;;26.20;97.40;;;;;;5002716;28;20378;-87
2023/08/21 07:04:45;;;;;;;1.93;1.80;;;26.20;97.20;;;;;;5007688;28;20203;-87
2023/08/21 07:07:10;;;;;;;3.57;1.90;;;26.30;97.20;;;;;;4995982;28;20499;-87
2023/08/21 07:09:36;;;;;;;2.28;1.70;;;26.40;97.00;;;;;;4999612;28;20173;-87
2023/08/21 07:12:03;;;;;;;2.90;2.00;;;26.40;96.90;;;;;;5009658;28;20454;-87
2023/08/21 07:14:29;;;;;;;1.95;1.60;;;26.50;96.70;;;;;;4997965;28;20567;-87
2023/08/21 07:16:54;;;;;;;2.90;1.93;;;26.50;96.60;;;;;;4994294;28;20251;-87
2023/08/21 07:19:20;;;;;;;3.05;1.98;;;26.60;96.60;;;;;;4995558;28;20266;-87
2023/08/21 07:21:45;;;;;;;2.50;1.80;;;26.60;96.50;;;;;;4998899;28;20263;-87
2023/08/21 07:24:11;;;;;;;3.77;2.00;;;26.60;96.40;;;;;;4998985;28;20177;-87
2023/08/21 07:26:37;;;;;;;2.53;1.70;;;26.60;96.30;;;;;;4997972;28;20182;-87
2023/08/21 07:29:04;;;;;;;3.10;1.73;;;26.60;96.30;;;;;;5015842;28;20709;-87
2023/08/21 07:31:30;;;;;;;1.65;1.50;;;26.60;96.30;;;;;;5012904;28;20170;-87
2023/08/21 07:33:56;;;;;;;3.70;1.80;;;26.60;96.30;;;;;;4997104;28;20181;-87
2023/08/21 07:36:21;;;;;;;2.10;1.80;;;26.70;96.30;;;;;;4998728;28;20188;-87
2023/08/21 07:38:47;;;;;;;2.47;1.60;;;26.70;96.20;;;;;;5016353;28;20271;-87
2023/08/21 07:41:13;;;;;;;2.72;1.80;;;26.70;96.10;;;;;;4998973;28;20283;-87
2023/08/21 07:43:43;;;;;;;2.17;1.70;;;26.70;96.00;;;;;;4997033;28;20574;-87
2023/08/21 07:46:15;;;;;;;2.88;1.88;;;26.80;95.90;;;;;;4996373;28;20182;-87
2023/08/21 07:48:42;;;;;;;2.28;1.73;;;26.90;95.90;;;;;;5018474;28;20211;-87
2023/08/21 07:51:08;;;;;;;1.95;1.70;;;27.00;95.70;;;;;;5000901;28;20181;-87
2023/08/21 07:53:34;;;;;;;2.35;1.80;;;27.10;95.50;;;;;;5000376;28;20212;-87
2023/08/21 07:56:01;;;;;;;1.98;1.70;;;27.20;95.30;;;;;;5018097;28;20200;-87
2023/08/21 07:58:26;;;;;;;2.33;1.73;;;27.20;95.40;;;;;;5003361;28;20373;-87
2023/08/21 08:00:52;;;;;;;2.80;1.98;;;27.50;94.70;;;;;;4998753;28;20208;-87
2023/08/21 08:03:18;;;;;;;2.00;1.80;;;27.80;93.90;;;;;;5017606;28;20182;-87
2023/08/21 08:05:44;;;;;;;2.10;1.70;;;28.00;93.20;;;;;;4998723;28;20185;-87
2023/08/21 08:08:10;;;;;;;3.08;1.90;;;28.20;92.80;;;;;;4999119;28;20461;-87
2023/08/21 08:10:40;;;;;;;4.50;2.03;;;28.40;92.10;;;;;;5018593;28;20181;-87
2023/08/21 08:13:07;;;;;;;2.20;1.90;;;28.70;91.20;;;;;;5018514;28;20313;-87
2023/08/21 08:15:34;;;;;;;2.25;1.73;;;28.90;90.50;;;;;;5016361;28;20211;-87
2023/08/21 08:18:01;;;;;;;2.00;1.70;;;29.00;90.00;;;;;;4999244;28;20192;-88
2023/08/21 08:20:27;;;;;;;2.08;1.88;;;29.20;89.20;;;;;;5001601;28;20386;-87
2023/08/21 08:22:52;;;;;;;3.00;1.80;;;29.30;88.20;;;;;;4999999;28;20185;-87
2023/08/21 08:25:18;;;;;;;2.17;1.80;;;29.30;88.60;;;;;;5001249;28;20476;-87
2023/08/21 08:27:44;;;;;;;2.72;1.60;;;29.30;87.80;;;;;;5009327;28;20212;-87
2023/08/21 08:30:10;;;;;;;2.67;1.70;;;29.50;86.40;;;;;;5008822;28;20573;-88
2023/08/21 08:32:37;;;;;;;2.92;2.00;;;29.60;85.50;;;;;;4997941;28;20292;-87
2023/08/21 08:35:03;;;;;;;2.05;1.75;;;29.80;84.70;;;;;;5015607;28;20185;-88
2023/08/21 08:37:28;;;;;;;2.30;2.03;;;29.90;83.90;;;;;;4998849;28;20232;-87
2023/08/21 08:39:54;;;;;;;3.33;1.95;;;30.00;83.20;;;;;;5004960;28;20495;-87
2023/08/21 08:42:20;;;;;;;2.20;2.00;;;30.00;82.50;;;;;;5017981;28;20544;-87
2023/08/21 08:44:47;;;;;;;2.17;1.98;;;30.10;82.20;;;;;;5013617;28;20516;-87
2023/08/21 08:47:14;;;;;;;2.13;1.90;;;30.20;81.90;;;;;;5024134;28;20243;-87
2023/08/21 08:49:41;;;;;;;2.60;1.85;;;30.30;81.30;;;;;;5015832;28;20174;-87
2023/08/21 08:52:07;;;;;;;3.92;1.70;;;30.30;80.90;;;;;;5016794;28;20174;-88
2023/08/21 08:54:35;;;;;;;4.00;1.88;;;30.50;80.30;;;;;;5016035;28;20306;-87
2023/08/21 08:57:01;;;;;;;2.30;1.85;;;30.50;79.90;;;;;;5003680;28;20188;-87
2023/08/21 08:59:30;;;;;;;2.08;1.75;;;30.60;79.20;;;;;;5021281;28;20184;-87
2023/08/21 09:01:56;;;;;;;2.45;1.85;;;30.70;79.10;;;;;;5000512;28;20506;-87
2023/08/21 09:04:22;;;;;;;2.03;1.70;;;30.70;78.40;;;;;;5018974;28;20419;-87
2023/08/21 09:06:47;;;;;;;2.22;1.90;;;30.90;77.90;;;;;;5002177;28;20187;-87
2023/08/21 09:09:13;;;;;;;5.10;2.20;;;30.90;78.10;;;;;;5001896;28;20244;-87
2023/08/21 09:11:43;;;;;;;4.25;2.10;;;30.80;77.70;;;;;;5016263;28;20228;-87
2023/08/21 09:14:18;;;;;;;3.20;1.95;;;30.80;77.50;;;;;;5016376;28;20207;-87
2023/08/21 09:17:06;;;;;;;2.10;1.90;;;30.90;77.30;;;;;;5016547;28;20425;-88
2023/08/21 09:19:32;;;;;;;2.28;1.90;;;31.10;76.70;;;;;;4999928;28;20224;-88
2023/08/21 09:21:58;;;;;;;2.65;1.95;;;31.00;76.80;;;;;;4998781;28;20452;-88
2023/08/21 09:24:23;;;;;;;1.90;1.50;;;31.00;77.00;;;;;;5000034;28;20180;-87
2023/08/21 09:26:50;;;;;;;2.25;1.80;;;30.90;77.00;;;;;;5001965;28;20259;-87
2023/08/21 09:29:17;;;;;;;4.60;1.70;;;30.70;77.90;;;;;;5007237;28;20407;-87
2023/08/21 09:31:45;;;;;;;2.20;1.85;;;30.50;79.00;;;;;;5011920;28;20200;-88
2023/08/21 09:34:11;;;;;;;2.47;1.67;;;30.40;79.50;;;;;;5002072;28;20270;-88
2023/08/21 09:36:39;;;;;;;2.22;2.03;;;30.40;79.90;;;;;;5001422;28;20196;-88
2023/08/21 09:39:06;;;;;;;1.90;1.70;;;30.20;81.00;;;;;;5003085;28;20185;-87
2023/08/21 09:41:32;;;;;;;2.63;1.90;;;30.20;81.70;;;;;;5017972;28;20178;-87
2023/08/21 09:44:03;;;;;;;2.08;1.75;;;30.00;82.50;;;;;;5000934;28;20189;-87
2023/08/21 09:46:29;;;;;;;2.95;1.98;;;30.00;83.20;;;;;;4999960;28;20483;-87
2023/08/21 09:48:55;;;;;;;2.22;1.70;;;29.90;83.90;;;;;;4999475;28;20208;-88
2023/08/21 09:51:21;;;;;;;2.47;1.80;;;29.90;84.40;;;;;;5000625;28;20192;-87
2023/08/21 09:53:50;;;;;;;2.65;2.00;;;29.80;84.90;;;;;;5016665;28;20170;-87
2023/08/21 09:56:18;;;;;;;2.03;1.83;;;29.80;85.20;;;;;;5018580;28;20204;-88
2023/08/21 09:58:45;;;;;;;2.35;1.73;;;29.80;85.60;;;;;;5018794;28;20438;-87
2023/08/21 10:01:14;;;;;;;2.25;2.05;;;29.70;86.20;;;;;;4998770;28;20208;-87
2023/08/21 10:03:47;;;;;;;1.92;1.73;;;29.70;86.50;;;;;;5013453;28;20223;-87
2023/08/21 10:06:18;;;;;;;2.00;1.67;;;29.70;86.70;;;;;;5018899;28;20213;-88
2023/08/21 10:08:48;;;;;;;2.00;1.80;;;29.80;86.70;;;;;;4999225;28;20366;-87
2023/08/21 10:11:19;;;;;;;2.30;1.75;;;29.80;86.60;;;;;;4996819;28;20536;-87
2023/08/21 10:13:45;;;;;;;3.85;2.05;;;29.90;86.50;;;;;;5017764;28;20528;-87
2023/08/21 10:16:11;;;;;;;3.00;1.80;;;29.90;86.00;;;;;;5000132;28;20280;-87
2023/08/21 10:18:37;;;;;;;2.63;1.95;;;30.00;86.00;;;;;;5014008;28;20239;-87
2023/08/21 10:21:20;;;;;;;4.03;1.90;;;30.00;87.00;;;;;;5006103;28;20204;-87
2023/08/21 10:23:48;;;;;;;1.77;1.63;;;29.90;86.50;;;;;;5003070;28;20181;-87
2023/08/21 10:26:14;;;;;;;1.90;1.70;;;30.00;86.30;;;;;;5008425;28;20235;-87
2023/08/21 10:29:01;;;;;;;1.73;1.63;;;30.00;86.60;;;;;;5007332;28;20236;-87
2023/08/21 10:31:33;;;;;;;2.17;1.65;;;30.00;86.50;;;;;;4999922;28;20279;-87
2023/08/21 10:34:00;;;;;;;3.30;1.77;;;30.00;86.50;;;;;;5000245;28;20608;-87
2023/08/21 10:36:45;;;;;;;2.40;1.70;;;30.00;86.30;;;;;;4995717;28;20219;-87
2023/08/21 10:39:25;;;;;;;2.55;1.70;;;30.10;86.40;;;;;;5014084;28;20290;-87
2023/08/21 10:41:55;;;;;;;2.63;1.60;;;30.00;86.80;;;;;;5000068;28;20312;-87
2023/08/21 10:44:42;;;;;;;1.75;1.65;;;30.00;86.80;;;;;;4997305;28;20328;-87
2023/08/21 10:47:27;;;;;;;3.15;1.80;;;30.00;87.00;;;;;;5015638;28;20181;-87
2023/08/21 10:49:55;;;;;;;2.00;1.80;;;30.00;87.20;;;;;;5015275;28;20189;-86
2023/08/21 10:52:25;;;;;;;2.38;1.70;;;30.10;87.30;;;;;;4994700;28;20381;-87
2023/08/21 10:55:01;;;;;;;1.85;1.60;;;30.00;87.40;;;;;;5010984;28;20198;-87
2023/08/21 10:57:35;;;;;;;2.00;1.80;;;30.00;87.60;;;;;;4994520;28;20246;-87
2023/08/21 11:00:09;;;;;;;2.83;1.73;;;30.00;87.80;;;;;;4997057;28;20579;-86
2023/08/21 11:02:36;;;;;;;2.45;1.60;;;30.00;88.10;;;;;;5000890;28;20559;-87
2023/08/21 11:05:05;;;;;;;2.67;1.90;;;30.00;88.20;;;;;;5007853;28;20193;-87
2023/08/21 11:07:43;;;;;;;2.13;1.60;;;30.00;88.30;;;;;;4996084;28;20441;-87
2023/08/21 11:10:13;;;;;;;2.25;1.63;;;30.00;88.70;;;;;;5001186;28;20309;-87
2023/08/21 11:12:59;;;;;;;1.67;1.55;;;30.00;88.90;;;;;;5015233;28;20182;-87
2023/08/21 11:15:26;;;;;;;2.20;1.70;;;29.90;89.10;;;;;;5015884;28;20225;-87
2023/08/21 11:17:58;;;;;;;2.42;1.75;;;29.90;89.40;;;;;;4996224;28;20454;-86
2023/08/21 11:20:43;;;;;;;3.10;1.85;;;30.00;89.50;;;;;;4998067;28;20246;-87
2023/08/21 11:23:09;;;;;;;2.33;1.75;;;30.00;89.40;;;;;;5006890;28;20462;-87
2023/08/21 11:25:38;;;;;;;1.98;1.65;;;30.00;89.80;;;;;;5008900;28;20368;-87
2023/08/21 11:28:05;;;;;;;2.13;1.80;;;29.90;89.90;;;;;;5018885;28;20205;-87
2023/08/21 11:30:32;;;;;;;2.08;1.88;;;29.90;90.00;;;;;;5015452;28;20248;-87
2023/08/21 11:33:09;;;;;;;3.42;1.80;;;29.90;90.10;;;;;;5001479;28;20180;-87
2023/08/21 11:35:45;;;;;;;3.05;1.80;;;29.80;90.30;;;;;;4986503;28;20204;-87
2023/08/21 11:38:19;;;;;;;2.63;1.67;;;29.80;90.40;;;;;;4982375;28;20184;-87
2023/08/21 11:40:58;;;;;;;2.15;1.67;;;29.80;90.50;;;;;;5003843;28;20237;-86
2023/08/21 11:43:41;;;;;;;2.08;1.88;;;29.80;90.60;;;;;;5022815;28;20188;-86
2023/08/21 11:46:10;;;;;;;2.20;1.83;;;29.80;90.70;;;;;;5005770;28;20425;-86
2023/08/21 11:48:38;;;;;;;2.17;1.70;;;29.80;90.80;;;;;;4999987;28;20215;-86
2023/08/21 11:51:09;;;;;;;1.70;1.60;;;29.80;90.90;;;;;;5016388;28;20239;-86
2023/08/21 11:53:38;;;;;;;2.17;1.80;;;29.80;90.90;;;;;;5014875;28;20174;-86
2023/08/21 11:56:10;;;;;;;2.33;1.70;;;29.80;90.90;;;;;;4997287;28;20285;-87
2023/08/21 11:58:45;;;;;;;1.60;1.50;;;29.80;91.10;;;;;;4998691;28;20212;-87
2023/08/21 12:01:19;;;;;;;1.80;1.70;;;29.80;91.20;;;;;;4999263;28;20719;-87
2023/08/21 12:03:45;;;;;;;1.90;1.60;;;29.70;91.30;;;;;;5001785;28;20188;-86
2023/08/21 12:06:12;;;;;;;2.20;1.60;;;29.70;91.40;;;;;;5016115;28;20485;-87
2023/08/21 12:08:39;;;;;;;2.20;1.70;;;29.70;91.60;;;;;;5014395;28;20209;-87
2023/08/21 12:11:05;;;;;;;1.80;1.50;;;29.70;91.60;;;;;;5017147;28;20284;-86
2023/08/21 12:13:31;;;;;;;2.75;2.05;;;29.70;91.70;;;;;;5016614;28;20184;-86
2023/08/21 12:15:57;;;;;;;2.15;1.60;;;29.70;91.80;;;;;;5001147;28;20180;-87
2023/08/21 12:18:23;;;;;;;2.38;1.80;;;29.70;91.90;;;;;;4999962;28;20342;-86
2023/08/21 12:20:49;;;;;;;1.70;1.55;;;29.70;91.90;;;;;;5000208;28;20339;-85
2023/08/21 12:23:15;;;;;;;2.10;1.75;;;29.70;92.00;;;;;;5016455;28;20462;-85
2023/08/21 12:25:41;;;;;;;1.75;1.63;;;29.70;92.10;;;;;;5001886;28;20249;-86
2023/08/21 12:28:08;;;;;;;1.77;1.50;;;29.70;92.20;;;;;;4996884;28;20315;-86
2023/08/21 12:30:34;;;;;;;2.30;1.95;;;29.70;92.30;;;;;;5019450;28;20173;-86
2023/08/21 12:33:00;;;;;;;2.28;1.63;;;29.70;92.30;;;;;;5006049;28;20201;-86
2023/08/21 12:35:25;;;;;;;1.63;1.52;;;29.70;92.30;;;;;;5018186;28;20477;-86
2023/08/21 12:37:58;;;;;;;2.15;1.80;;;29.70;92.30;;;;;;5016544;28;20243;-86
2023/08/21 12:40:24;;;;;;;2.70;1.58;;;29.70;92.40;;;;;;4996906;28;20322;-86
2023/08/21 12:42:50;;;;;;;1.70;1.60;;;29.70;92.40;;;;;;5018381;28;20225;-86
2023/08/21 12:45:16;;;;;;;1.90;1.60;;;29.70;92.40;;;;;;4998486;28;20406;-86
2023/08/21 12:47:42;;;;;;;2.05;1.80;;;29.70;92.50;;;;;;5013918;28;20202;-86